Time;durP1;ratioP1;P1;durP2;ratioP2;P2;SDS_P1;SDS_P2;PMS_P1;PMS_P2;Temp;Humidity;BMP_temperature;BMP_pressure;BME280_temperature;BME280_humidity;BME280_pressure;Samples;Min_cycle;Max_cycle;Signal;HPM_P1;HPM_P2
2023/05/15 00:02:24;;;;;;;2.55;2.03;;;;;;;16.98;50.05;99319.94;5036290;28;20041;-96
2023/05/15 00:04:49;;;;;;;5.13;2.08;;;;;;;16.95;49.68;99317.84;5003306;28;20037;-95
2023/05/15 00:07:15;;;;;;;4.60;2.05;;;;;;;16.89;50.23;99300.03;5019012;28;20477;-96
2023/05/15 00:09:41;;;;;;;4.47;1.80;;;;;;;16.96;50.49;99305.84;5019685;28;20063;-94
2023/05/15 00:12:06;;;;;;;4.13;1.90;;;;;;;16.87;50.63;99299.56;5019340;28;20025;-94
2023/05/15 00:14:32;;;;;;;5.13;1.92;;;;;;;17.00;50.10;99295.16;5002829;28;20447;-95
2023/05/15 00:16:57;;;;;;;2.95;1.92;;;;;;;16.99;50.33;99272.56;5035512;28;20032;-94
2023/05/15 00:19:23;;;;;;;4.07;2.00;;;;;;;16.98;50.06;99262.03;5002838;28;20033;-93
2023/05/15 00:21:48;;;;;;;3.20;2.10;;;;;;;17.02;49.80;99266.53;5019269;28;20026;-94
2023/05/15 00:24:14;;;;;;;3.25;1.88;;;;;;;17.03;49.47;99264.59;5019853;28;20059;-94
2023/05/15 00:26:39;;;;;;;3.83;2.00;;;;;;;17.01;49.54;99273.06;5002220;28;20017;-94
2023/05/15 00:29:05;;;;;;;4.55;2.15;;;;;;;16.89;49.82;99268.22;5002811;28;20030;-96
2023/05/15 00:31:32;;;;;;;4.15;2.17;;;;;;;17.01;49.64;99272.25;5003155;28;20029;-95
2023/05/15 00:33:57;;;;;;;2.60;1.83;;;;;;;16.95;49.31;99268.88;5003557;28;20033;-95
2023/05/15 00:36:24;;;;;;;4.45;2.10;;;;;;;16.84;49.20;99276.50;5002209;28;20496;-95
2023/05/15 00:38:50;;;;;;;4.03;1.90;;;;;;;16.89;48.91;99279.09;5003232;28;20029;-95
2023/05/15 00:41:16;;;;;;;3.97;2.20;;;;;;;16.93;49.56;99279.25;5019309;28;20021;-95
2023/05/15 00:43:41;;;;;;;8.43;3.00;;;;;;;16.98;48.30;99272.91;5036714;28;20075;-96
2023/05/15 00:46:07;;;;;;;3.22;1.88;;;;;;;17.00;48.29;99271.47;5002192;28;20025;-95
2023/05/15 00:48:32;;;;;;;4.22;2.30;;;;;;;17.01;48.06;99270.34;5019172;28;20018;-94
2023/05/15 00:50:58;;;;;;;5.05;2.10;;;;;;;16.99;48.09;99256.25;4986128;28;20034;-93
2023/05/15 00:53:23;;;;;;;3.95;2.17;;;;;;;16.94;47.84;99264.56;4986178;28;20041;-95
2023/05/15 00:55:49;;;;;;;3.97;2.17;;;;;;;17.00;48.10;99267.97;4985833;28;20528;-95
2023/05/15 00:58:15;;;;;;;2.50;1.90;;;;;;;16.95;48.09;99256.09;4985926;28;20028;-96
2023/05/15 01:00:42;;;;;;;2.83;1.95;;;;;;;17.01;48.12;99258.66;4987238;28;20025;-94
2023/05/15 01:03:07;;;;;;;3.58;1.80;;;;;;;16.96;47.72;99246.81;4987043;28;20021;-94
2023/05/15 01:05:32;;;;;;;5.70;2.05;;;;;;;16.84;48.10;99227.56;5002568;28;20037;-94
2023/05/15 01:08:15;;;;;;;3.63;2.60;;;;;;;16.91;48.05;99240.69;5001441;28;20455;-93
2023/05/15 01:10:41;;;;;;;2.85;1.90;;;;;;;16.84;48.15;99241.16;4986440;28;20160;-95
2023/05/15 01:13:06;;;;;;;4.43;2.10;;;;;;;16.69;48.80;99223.31;4985967;28;20025;-94
2023/05/15 01:15:31;;;;;;;3.40;2.10;;;;;;;16.71;48.66;99212.13;4986141;28;20030;-93
2023/05/15 01:17:57;;;;;;;2.58;1.95;;;;;;;16.69;49.01;99226.03;4986653;28;20029;-94
2023/05/15 01:20:22;;;;;;;3.20;2.10;;;;;;;16.36;49.52;99201.88;4985703;28;20120;-93
2023/05/15 01:23:14;;;;;;;2.50;1.80;;;;;;;16.62;49.64;99219.44;5002222;28;20388;-94
2023/05/15 01:26:01;;;;;;;2.58;1.85;;;;;;;16.62;49.57;99212.09;5007475;28;20044;-95
2023/05/15 01:28:30;;;;;;;3.78;2.40;;;;;;;16.45;49.52;99196.47;5003192;28;20041;-95
2023/05/15 01:30:55;;;;;;;3.88;2.63;;;;;;;16.62;49.39;99217.53;4986326;28;20040;-95
2023/05/15 01:33:28;;;;;;;4.97;2.20;;;;;;;16.45;49.62;99204.63;4986113;28;20037;-96
2023/05/15 01:36:19;;;;;;;2.60;1.90;;;;;;;16.60;49.64;99236.06;5002047;28;20025;-94
2023/05/15 01:38:50;;;;;;;3.83;2.15;;;;;;;16.48;49.97;99219.53;5007194;28;20044;-95
2023/05/15 01:41:21;;;;;;;4.07;2.35;;;;;;;16.57;49.80;99226.59;5001041;28;20179;-94
2023/05/15 01:43:48;;;;;;;3.33;1.95;;;;;;;16.47;49.45;99213.28;5002259;28;20033;-96
2023/05/15 01:46:15;;;;;;;3.00;2.25;;;;;;;16.47;49.76;99217.91;4985796;28;20037;-94
2023/05/15 01:48:41;;;;;;;3.70;2.20;;;;;;;16.43;49.53;99198.69;5001524;28;20039;-95
2023/05/15 01:51:06;;;;;;;2.42;2.10;;;;;;;16.54;49.41;99224.53;4985232;28;20053;-96
2023/05/15 01:53:32;;;;;;;3.53;2.00;;;;;;;16.55;49.50;99219.88;5001799;28;20036;-94
2023/05/15 01:55:58;;;;;;;3.42;2.10;;;;;;;16.67;49.77;99243.78;5002496;28;20029;-94
2023/05/15 01:58:24;;;;;;;5.15;2.53;;;;;;;16.51;49.56;99214.25;5018175;28;20029;-94
2023/05/15 02:00:50;;;;;;;3.55;2.20;;;;;;;16.52;49.33;99207.72;5017713;28;20109;-94
2023/05/15 02:03:15;;;;;;;3.45;2.10;;;;;;;16.55;49.19;99207.06;5019180;28;20033;-95
2023/05/15 02:05:41;;;;;;;2.95;2.13;;;;;;;16.59;49.16;99203.75;5002439;28;20079;-95
2023/05/15 02:08:06;;;;;;;5.20;2.20;;;;;;;16.60;49.05;99205.34;5038854;28;20503;-94
2023/05/15 02:10:32;;;;;;;3.20;2.38;;;;;;;16.58;48.89;99211.13;5025452;28;20021;-96
2023/05/15 02:12:57;;;;;;;3.72;2.20;;;;;;;16.39;49.31;99191.50;5019919;28;20022;-94
2023/05/15 02:15:22;;;;;;;4.72;2.13;;;;;;;16.35;49.66;99197.56;5017244;28;20029;-95
2023/05/15 02:17:48;;;;;;;3.13;2.30;;;;;;;16.29;49.44;99200.69;5016989;28;20025;-95
2023/05/15 02:20:13;;;;;;;4.35;2.72;;;;;;;16.34;49.68;99208.72;5016686;28;20033;-94
2023/05/15 02:22:39;;;;;;;3.67;2.50;;;;;;;16.28;49.58;99202.63;5017382;28;20037;-96
2023/05/15 02:25:05;;;;;;;4.50;2.50;;;;;;;16.24;49.63;99209.00;5033483;28;20032;-95
2023/05/15 02:27:40;;;;;;;2.80;2.20;;;;;;;16.20;49.78;99208.00;5016842;28;20121;-95
2023/05/15 02:30:12;;;;;;;4.32;2.70;;;;;;;16.35;49.50;99245.66;5018060;28;20029;-95
2023/05/15 02:32:41;;;;;;;5.43;2.45;;;;;;;16.34;49.78;99242.13;5034480;28;20079;-95
2023/05/15 02:35:32;;;;;;;4.15;2.83;;;;;;;16.36;49.88;99239.91;5016624;28;20383;-95
2023/05/15 02:37:59;;;;;;;4.28;2.33;;;;;;;16.20;50.15;99213.44;5036938;28;20021;-95
2023/05/15 02:40:25;;;;;;;4.32;2.60;;;;;;;16.19;50.02;99207.22;5021267;28;20083;-95
2023/05/15 02:42:51;;;;;;;5.72;2.83;;;;;;;16.10;50.50;99209.03;5004372;28;20025;-94
2023/05/15 02:45:17;;;;;;;4.32;2.60;;;;;;;15.98;50.49;99193.31;5020545;28;20025;-95
2023/05/15 02:47:42;;;;;;;5.53;2.65;;;;;;;15.99;50.84;99194.91;5020822;28;20113;-95
2023/05/15 02:50:08;;;;;;;4.72;2.60;;;;;;;16.09;50.92;99205.53;5037540;28;20029;-94
2023/05/15 02:52:34;;;;;;;4.15;2.60;;;;;;;15.94;50.80;99198.56;5037569;28;20033;-95
2023/05/15 02:54:59;;;;;;;7.45;2.60;;;;;;;15.92;51.41;99197.28;5021309;28;20022;-95
2023/05/15 02:57:25;;;;;;;4.32;2.60;;;;;;;16.02;51.40;99216.03;5036824;28;20500;-95
2023/05/15 02:59:52;;;;;;;4.32;2.55;;;;;;;15.92;51.48;99208.13;5021119;28;20129;-96
2023/05/15 03:02:17;;;;;;;6.57;2.67;;;;;;;15.86;51.53;99207.44;5020441;28;20022;-95
2023/05/15 03:04:43;;;;;;;6.45;2.55;;;;;;;15.79;51.75;99185.34;5003767;28;20553;-95
2023/05/15 03:07:08;;;;;;;6.07;2.80;;;;;;;15.99;52.05;99226.72;5021243;28;20046;-95
2023/05/15 03:09:34;;;;;;;7.07;2.83;;;;;;;15.81;52.18;99207.53;5020794;28;20040;-95
2023/05/15 03:11:59;;;;;;;4.93;3.13;;;;;;;15.72;52.11;99193.91;5038940;28;20082;-96
2023/05/15 03:14:25;;;;;;;3.85;2.90;;;;;;;15.77;52.13;99176.69;5006594;28;20132;-96
2023/05/15 03:16:50;;;;;;;3.05;2.45;;;;;;;15.72;52.30;99187.69;5006125;28;20021;-96
2023/05/15 03:19:16;;;;;;;3.83;2.70;;;;;;;15.73;52.01;99190.09;5024828;28;20064;-96
2023/05/15 03:21:42;;;;;;;4.53;2.45;;;;;;;15.82;52.49;99201.03;5028412;28;20001;-96
2023/05/15 03:24:07;;;;;;;6.95;2.80;;;;;;;15.70;52.24;99173.59;5038704;28;20019;-94
2023/05/15 03:26:33;;;;;;;4.05;2.83;;;;;;;15.49;53.04;99171.34;5023028;28;20032;-95
2023/05/15 03:28:59;;;;;;;4.65;2.65;;;;;;;15.65;52.61;99187.28;5019821;28;20032;-95
2023/05/15 03:31:25;;;;;;;6.30;3.22;;;;;;;15.73;52.71;99189.31;5037865;28;20038;-95
2023/05/15 03:33:50;;;;;;;7.65;3.20;;;;;;;15.61;53.14;99184.38;5021963;28;20026;-95
2023/05/15 03:36:16;;;;;;;6.35;2.80;;;;;;;15.80;52.92;99205.97;5041217;28;20396;-96
2023/05/15 03:38:43;;;;;;;3.97;2.58;;;;;;;15.70;52.94;99182.53;5040955;28;20104;-96
2023/05/15 03:41:11;;;;;;;7.25;3.10;;;;;;;15.80;52.68;99188.88;5027352;28;20026;-96
2023/05/15 03:43:37;;;;;;;4.85;3.30;;;;;;;15.85;52.50;99194.16;5004057;28;20026;-96
2023/05/15 03:46:02;;;;;;;6.45;3.10;;;;;;;15.84;52.54;99206.16;5020381;28;20499;-95
2023/05/15 03:48:28;;;;;;;9.85;3.55;;;;;;;15.92;52.51;99214.38;5020251;28;20029;-94
2023/05/15 03:50:53;;;;;;;10.13;3.85;;;;;;;16.02;52.34;99209.78;5023803;28;20061;-95
2023/05/15 03:53:19;;;;;;;5.20;3.33;;;;;;;15.98;52.40;99206.06;5004978;28;20025;-96
2023/05/15 03:55:44;;;;;;;6.97;3.55;;;;;;;15.96;52.70;99199.06;5021502;28;20030;-96
2023/05/15 03:58:12;;;;;;;6.60;3.50;;;;;;;16.13;52.23;99211.94;5034717;28;20045;-96
2023/05/15 04:00:41;;;;;;;5.07;3.03;;;;;;;16.15;51.62;99187.22;5002189;28;20029;-96
2023/05/15 04:03:09;;;;;;;4.32;3.08;;;;;;;16.46;51.48;99221.75;5004352;28;20026;-94
2023/05/15 04:05:34;;;;;;;6.22;3.15;;;;;;;16.43;51.06;99200.63;5035514;28;20053;-94
2023/05/15 04:08:00;;;;;;;7.80;2.92;;;;;;;16.38;51.54;99209.72;4986066;28;20046;-95
2023/05/15 04:10:25;;;;;;;5.68;3.20;;;;;;;16.39;51.16;99215.94;5019412;28;20014;-95
2023/05/15 04:12:51;;;;;;;9.35;3.08;;;;;;;16.63;50.52;99221.84;5002163;28;20021;-96
2023/05/15 04:15:17;;;;;;;3.63;2.72;;;;;;;16.81;50.46;99235.53;5002660;28;20030;-93
2023/05/15 04:17:43;;;;;;;5.53;3.10;;;;;;;16.72;50.08;99214.50;5020567;28;20045;-95
2023/05/15 04:20:10;;;;;;;6.85;2.97;;;;;;;16.79;50.56;99214.09;5018436;28;20030;-94
2023/05/15 04:22:36;;;;;;;5.47;3.22;;;;;;;16.81;50.43;99211.88;5002327;28;20030;-96
2023/05/15 04:25:01;;;;;;;3.85;2.80;;;;;;;16.87;49.63;99209.81;5023450;28;20079;-94
2023/05/15 04:27:28;;;;;;;5.38;2.97;;;;;;;16.88;50.04;99216.88;5024529;28;20058;-95
2023/05/15 04:29:55;;;;;;;5.15;3.13;;;;;;;16.96;50.20;99218.81;5003989;28;20025;-94
2023/05/15 04:32:20;;;;;;;353.98;34.42;;;;;;;16.62;52.03;99192.25;5008126;28;20064;-90
2023/05/15 04:34:46;;;;;;;7.78;3.50;;;;;;;16.75;50.35;99191.34;5040257;28;20033;-92
2023/05/15 04:37:11;;;;;;;9.65;3.80;;;;;;;16.76;50.40;99177.41;5017237;28;20476;-91
2023/05/15 04:39:37;;;;;;;6.68;3.55;;;;;;;16.78;50.52;99202.38;5026819;28;20026;-93
2023/05/15 04:42:11;;;;;;;8.45;4.15;;;;;;;16.87;50.50;99212.53;5052372;28;20498;-92
2023/05/15 04:44:37;;;;;;;12.88;7.07;;;;;;;16.86;50.40;99200.84;5040469;28;20048;-96
2023/05/15 04:47:05;;;;;;;8.35;3.60;;;;;;;16.83;50.38;99187.06;5030415;28;20025;-95
2023/05/15 04:49:31;;;;;;;8.00;3.67;;;;;;;16.82;51.24;99183.56;5047912;28;20094;-96
2023/05/15 04:55:24;;;;;;;6.88;4.00;;;;;;;16.94;51.04;99218.31;5068200;28;20059;-96
2023/05/15 04:58:03;;;;;;;6.80;3.55;;;;;;;16.97;51.12;99198.66;5068651;28;20064;-93
2023/05/15 05:00:29;;;;;;;10.75;3.97;;;;;;;17.17;51.07;99221.75;5022794;28;20055;-91
2023/05/15 05:02:54;;;;;;;6.45;3.58;;;;;;;17.03;51.03;99200.09;5022997;28;20028;-92
2023/05/15 05:05:20;;;;;;;9.00;4.30;;;;;;;17.12;50.86;99211.84;5020856;28;20029;-91
2023/05/15 05:07:45;;;;;;;7.07;3.22;;;;;;;17.23;50.06;99220.50;5055071;28;20049;-90
2023/05/15 05:10:12;;;;;;;7.47;3.40;;;;;;;17.31;50.04;99218.94;5055859;28;20487;-90
2023/05/15 05:12:37;;;;;;;8.00;3.58;;;;;;;17.33;50.16;99227.56;5039286;28;20021;-92
2023/05/15 05:15:03;;;;;;;9.80;3.10;;;;;;;17.29;49.97;99227.41;5037457;28;20079;-91
2023/05/15 05:17:30;;;;;;;6.97;3.90;;;;;;;17.31;49.53;99233.31;5037008;28;20028;-90
2023/05/15 05:19:55;;;;;;;6.85;3.40;;;;;;;17.47;49.63;99236.41;5012042;28;20025;-90
2023/05/15 05:22:21;;;;;;;6.25;3.60;;;;;;;17.63;49.28;99233.22;5039844;28;20520;-89
2023/05/15 05:24:46;;;;;;;6.18;3.45;;;;;;;17.82;49.24;99238.34;5039340;28;20484;-88
2023/05/15 05:27:12;;;;;;;14.20;4.35;;;;;;;17.79;49.41;99207.13;5034000;28;20026;-89
2023/05/15 05:29:38;;;;;;;7.72;3.70;;;;;;;18.09;48.95;99223.63;4982854;28;20033;-88
2023/05/15 05:32:05;;;;;;;6.75;3.13;;;;;;;18.06;49.70;99208.72;5028649;28;20021;-89
2023/05/15 05:34:31;;;;;;;7.85;3.20;;;;;;;18.15;49.99;99216.88;5033256;28;20029;-88
2023/05/15 05:36:56;;;;;;;9.85;3.85;;;;;;;18.23;50.05;99218.00;5046612;28;20383;-89
2023/05/15 05:39:21;;;;;;;11.10;4.85;;;;;;;18.16;50.06;99218.50;5039290;28;20036;-90
2023/05/15 05:41:47;;;;;;;11.23;4.82;;;;;;;18.22;49.54;99225.41;5038058;28;20025;-90
2023/05/15 05:44:12;;;;;;;73.47;6.45;;;;;;;18.31;48.71;99209.81;5037241;28;20040;-90
2023/05/15 05:46:47;;;;;;;6.95;3.55;;;;;;;18.36;48.51;99212.38;5022794;28;20091;-92
2023/05/15 05:49:29;;;;;;;7.38;5.35;;;;;;;18.51;47.83;99210.22;5038881;28;20125;-91
2023/05/15 05:52:05;;;;;;;;;;;;;;;18.65;47.78;99234.59;5056016;28;20017;-92
2023/05/15 05:55:13;;;;;;;9.10;4.75;;;;;;;18.58;47.62;99205.88;5034069;28;19920;-91
2023/05/15 05:57:58;;;;;;;8.93;2.95;;;;;;;18.71;47.41;99225.91;4960990;28;21731;-95
2023/05/15 06:00:33;;;;;;;4.85;3.15;;;;;;;18.60;47.01;99202.84;4962748;28;20035;-92
2023/05/15 06:03:00;;;;;;;4.93;3.10;;;;;;;18.72;46.76;99205.69;4933351;28;20031;-91
2023/05/15 06:05:26;;;;;;;5.45;3.10;;;;;;;18.81;46.49;99208.41;4930258;29;20046;-92
2023/05/15 06:07:52;;;;;;;15.73;3.75;;;;;;;18.73;46.96;99212.72;4935025;28;20050;-92
2023/05/15 06:10:18;;;;;;;6.50;2.92;;;;;;;18.51;47.26;99205.59;4932647;28;20171;-91
2023/05/15 06:12:44;;;;;;;9.60;5.78;;;;;;;18.56;47.28;99216.31;4955439;28;20030;-91
2023/05/15 06:15:10;;;;;;;4.75;2.67;;;;;;;18.53;47.37;99206.09;4950349;28;20130;-90
2023/05/15 06:17:36;;;;;;;6.85;2.65;;;;;;;18.80;47.28;99225.09;4945366;28;20030;-92
2023/05/15 06:20:03;;;;;;;9.45;3.63;;;;;;;18.76;46.57;99200.38;4956454;28;20026;-90
2023/05/15 06:22:31;;;;;;;7.05;5.65;;;;;;;18.78;46.67;99203.59;4940926;28;20035;-91
2023/05/15 06:24:56;;;;;;;12.60;3.72;;;;;;;18.46;47.67;99208.50;4958448;28;20558;-92
2023/05/15 06:27:28;;;;;;;10.80;2.83;;;;;;;18.79;47.58;99229.75;4939470;28;20113;-90
2023/05/15 06:29:53;;;;;;;7.82;5.25;;;;;;;18.76;47.79;99205.84;4954208;28;20046;-90
2023/05/15 06:32:19;;;;;;;10.15;4.97;;;;;;;18.94;47.23;99188.28;4931422;28;20497;-91
2023/05/15 06:34:45;;;;;;;6.60;3.22;;;;;;;18.95;47.21;99175.47;4949298;28;20026;-92
2023/05/15 06:37:11;;;;;;;5.38;2.50;;;;;;;19.15;47.02;99198.44;4950033;28;20115;-91
2023/05/15 06:39:43;;;;;;;7.57;3.60;;;;;;;19.01;47.79;99187.78;4952546;28;20176;-95
2023/05/15 06:45:09;;;;;;;8.98;2.90;;;;;;;19.31;45.93;99185.81;4944228;29;20035;-93
2023/05/15 06:47:35;;;;;;;6.00;2.88;;;;;;;19.44;45.61;99174.97;4992814;28;20036;-92
2023/05/15 06:50:00;;;;;;;4.43;2.92;;;;;;;19.47;45.93;99180.59;5008512;28;20109;-92
2023/05/15 06:52:28;;;;;;;6.82;2.60;;;;;;;19.54;45.95;99183.56;5014127;28;20025;-96
2023/05/15 06:54:57;;;;;;;12.38;3.00;;;;;;;19.88;45.21;99184.47;5045461;28;20029;-94
2023/05/15 06:57:35;;;;;;;4.93;2.83;;;;;;;20.12;45.03;99196.63;5026837;28;20021;-92
2023/05/15 07:00:11;;;;;;;8.38;2.47;;;;;;;20.03;44.35;99174.84;5005786;28;20035;-95
2023/05/15 07:02:37;;;;;;;5.43;2.58;;;;;;;20.41;44.48;99214.03;5014226;28;20078;-95
2023/05/15 07:05:15;;;;;;;;;;;;;;;;;;;;;
2023/05/15 07:07:46;;;;;;;4.13;2.38;;;;;;;20.68;42.87;99194.28;5057672;28;20475;-94
2023/05/15 07:13:52;;;;;;;8.07;2.22;;;;;;;20.79;42.51;99178.19;5007024;28;20021;-94
2023/05/15 07:16:20;;;;;;;5.03;2.45;;;;;;;20.98;42.54;99188.59;5026490;28;20356;-94
2023/05/15 07:22:13;;;;;;;10.15;2.67;;;;;;;21.11;42.46;99187.44;5051568;28;20071;-94
2023/05/15 07:24:39;;;;;;;4.80;2.50;;;;;;;21.27;42.06;99176.59;5050274;28;20028;-96
2023/05/15 07:27:16;;;;;;;;;;;;;;;;;;;;;
2023/05/15 07:29:42;;;;;;;9.38;2.60;;;;;;;21.18;41.96;99175.91;5069495;28;20084;-92
2023/05/15 07:32:15;;;;;;;3.92;2.55;;;;;;;21.35;42.02;99172.94;5030830;28;20032;-96
2023/05/15 07:34:42;;;;;;;14.93;3.17;;;;;;;21.36;41.57;99168.25;5050506;28;20037;-95
2023/05/15 07:40:39;;;;;;;9.27;3.00;;;;;;;21.22;42.50;99140.44;5040412;28;20143;-96
2023/05/15 07:43:08;;;;;;;8.95;2.20;;;;;;;21.15;42.20;99149.22;5029238;28;20017;-92
2023/05/15 07:45:36;;;;;;;8.20;3.08;;;;;;;21.25;41.97;99148.75;5006435;28;20021;-91
2023/05/15 07:48:22;;;;;;;7.25;3.10;;;;;;;21.47;41.76;99147.47;5023914;28;20077;-92
2023/05/15 07:50:52;;;;;;;8.45;2.97;;;;;;;21.46;42.00;99136.84;5037669;28;20052;-92
2023/05/15 07:53:20;;;;;;;3.90;2.35;;;;;;;21.36;41.83;99130.69;5038596;28;20032;-91
2023/05/15 07:55:48;;;;;;;4.80;3.50;;;;;;;21.64;42.15;99140.91;5005461;28;20029;-92
2023/05/15 07:58:17;;;;;;;9.82;2.90;;;;;;;21.75;42.40;99157.66;5037882;28;20438;-93
2023/05/15 08:00:45;;;;;;;6.80;2.28;;;;;;;21.72;41.99;99161.09;5024138;28;20009;-94
2023/05/15 08:03:10;;;;;;;11.23;2.72;;;;;;;21.88;42.23;99145.50;5041785;28;20032;-89
2023/05/15 08:05:36;;;;;;;6.78;2.80;;;;;;;21.99;42.02;99138.34;5029069;28;20084;-93
2023/05/15 08:08:04;;;;;;;10.73;6.88;;;;;;;22.19;41.49;99153.00;5038027;28;20526;-93
2023/05/15 08:10:30;;;;;;;8.20;2.50;;;;;;;22.28;41.05;99136.38;5013940;28;20582;-91
2023/05/15 08:13:04;;;;;;;6.18;2.20;;;;;;;22.21;41.43;99141.66;5025196;28;20032;-93
2023/05/15 08:15:35;;;;;;;4.78;2.05;;;;;;;22.45;41.18;99157.19;5026570;28;20017;-93
2023/05/15 08:18:01;;;;;;;5.07;2.22;;;;;;;22.57;39.64;99110.47;5039922;28;20056;-92
2023/05/15 08:20:26;;;;;;;10.18;4.03;;;;;;;22.76;39.82;99119.91;5008923;28;20029;-89
2023/05/15 08:22:55;;;;;;;8.05;3.13;;;;;;;22.75;40.06;99110.09;5043822;28;20039;-90
2023/05/15 08:26:04;;;;;;;4.20;2.65;;;;;;;23.29;39.95;99130.56;5042866;28;20021;-91
2023/05/15 08:28:35;;;;;;;8.90;3.88;;;;;;;23.05;39.40;99102.16;5048091;28;20135;-90
2023/05/15 08:31:01;;;;;;;6.25;3.40;;;;;;;23.08;39.31;99106.16;5033528;28;21312;-90
2023/05/15 08:33:26;;;;;;;7.80;2.58;;;;;;;23.26;38.79;99118.31;5019046;28;20105;-89
2023/05/15 08:35:52;;;;;;;9.80;3.17;;;;;;;23.38;38.15;99128.38;5019447;28;20037;-92
2023/05/15 08:38:18;;;;;;;8.40;3.75;;;;;;;23.54;37.61;99118.13;5025239;28;20029;-89
2023/05/15 08:40:46;;;;;;;6.72;2.45;;;;;;;23.73;37.35;99130.28;5017691;28;20025;-91
2023/05/15 08:43:13;;;;;;;5.25;2.25;;;;;;;23.85;37.69;99151.38;5032064;28;20037;-88
2023/05/15 08:45:42;;;;;;;7.95;3.10;;;;;;;23.81;38.54;99143.03;5002933;28;20120;-92
2023/05/15 08:48:24;;;;;;;18.13;4.60;;;;;;;23.36;38.21;99119.72;5006571;28;20431;-94
2023/05/15 08:51:05;;;;;;;6.80;2.83;;;;;;;23.18;38.51;99128.38;4987478;28;20038;-94
2023/05/15 08:53:31;;;;;;;8.02;2.78;;;;;;;23.38;38.82;99122.88;5001594;28;20033;-92
2023/05/15 08:55:58;;;;;;;6.80;2.88;;;;;;;23.72;37.52;99156.16;5008290;28;20495;-91
2023/05/15 09:01:26;;;;;;;6.60;2.42;;;;;;;24.09;37.64;99167.53;4972353;28;20057;-94
2023/05/15 09:04:00;;;;;;;9.18;2.80;;;;;;;24.15;37.56;99137.78;4960442;28;20051;-92
2023/05/15 09:06:29;;;;;;;5.13;2.40;;;;;;;24.28;37.18;99154.91;4960808;28;20062;-95
2023/05/15 09:08:55;;;;;;;5.18;2.85;;;;;;;24.36;36.91;99149.16;4958968;28;20051;-91
2023/05/15 09:11:24;;;;;;;5.85;2.33;;;;;;;24.26;37.69;99143.47;4959250;28;20541;-94
2023/05/15 09:13:53;;;;;;;13.90;3.28;;;;;;;24.37;38.07;99156.25;4961858;28;20081;-93
2023/05/15 09:16:20;;;;;;;7.93;2.95;;;;;;;24.75;37.77;99171.06;4960593;28;20039;-93
2023/05/15 09:18:53;;;;;;;8.38;3.20;;;;;;;24.83;36.53;99154.66;4969424;28;20514;-93
2023/05/15 09:21:28;;;;;;;4.97;2.17;;;;;;;24.98;35.94;99161.97;4980351;28;20046;-92
2023/05/15 09:24:14;;;;;;;5.30;2.38;;;;;;;24.92;36.14;99135.91;4985706;28;20097;-92
2023/05/15 09:26:41;;;;;;;4.47;2.42;;;;;;;25.19;35.58;99156.81;4984312;28;20050;-93
2023/05/15 09:29:08;;;;;;;12.50;6.80;;;;;;;25.24;34.73;99152.16;4988159;28;20050;-91
2023/05/15 09:31:38;;;;;;;4.65;2.40;;;;;;;25.41;34.51;99159.88;4982749;28;20045;-92
2023/05/15 09:34:05;;;;;;;3.63;2.50;;;;;;;25.36;34.50;99132.66;5043618;28;20037;-93
2023/05/15 09:36:44;;;;;;;5.55;2.10;;;;;;;25.02;35.13;99143.53;5041051;28;20052;-90
2023/05/15 09:39:09;;;;;;;5.88;2.58;;;;;;;25.10;34.54;99134.22;5024958;28;20489;-93
2023/05/15 09:41:36;;;;;;;10.60;2.40;;;;;;;24.59;35.28;99112.59;5023414;28;20020;-91
2023/05/15 09:44:02;;;;;;;7.10;2.40;;;;;;;24.58;35.46;99133.03;5038239;28;20032;-92
2023/05/15 09:46:30;;;;;;;9.55;2.33;;;;;;;24.43;35.71;99107.22;5038597;28;20052;-94
2023/05/15 09:48:56;;;;;;;7.63;2.60;;;;;;;24.36;36.01;99124.41;5005440;28;20219;-92
2023/05/15 09:51:31;;;;;;;4.50;2.63;;;;;;;24.49;36.76;99135.22;5017001;28;20133;-91
2023/05/15 09:53:57;;;;;;;7.47;3.25;;;;;;;24.65;36.51;99122.13;5017889;28;20120;-92
2023/05/15 09:56:27;;;;;;;9.75;3.20;;;;;;;24.72;36.42;99122.25;5026434;28;20033;-90
2023/05/15 09:58:54;;;;;;;17.33;9.65;;;;;;;24.67;37.62;99119.00;5016985;28;20347;-91
2023/05/15 10:01:24;;;;;;;7.38;2.80;;;;;;;24.42;38.98;99113.88;5015657;28;20049;-93
2023/05/15 10:04:00;;;;;;;51.93;27.37;;;;;;;24.23;40.44;99116.69;4986018;28;20079;-93
2023/05/15 10:06:26;;;;;;;24.10;14.88;;;;;;;24.07;41.52;99111.28;5009595;28;20557;-92
2023/05/15 10:08:53;;;;;;;5.65;2.67;;;;;;;23.98;43.10;99108.78;5041098;28;20132;-92
2023/05/15 10:11:28;;;;;;;6.90;2.50;;;;;;;23.72;45.07;99110.25;5052607;28;20029;-94
2023/05/15 10:13:53;;;;;;;7.50;2.20;;;;;;;23.83;41.80;99139.94;5032668;28;20061;-93
2023/05/15 10:16:23;;;;;;;6.70;2.55;;;;;;;24.06;43.10;99139.97;5044992;28;20071;-92
2023/05/15 10:18:51;;;;;;;5.10;2.47;;;;;;;24.08;42.75;99115.66;5007710;28;20047;-92
2023/05/15 10:21:43;;;;;;;8.23;4.85;;;;;;;24.05;49.37;99132.88;5032500;28;20060;-93
2023/05/15 10:24:13;;;;;;;5.05;2.78;;;;;;;23.66;48.72;99097.94;5034579;28;20028;-90
2023/05/15 10:26:40;;;;;;;9.35;6.22;;;;;;;23.73;47.87;99114.56;5023135;28;20513;-91
2023/05/15 10:29:15;;;;;;;7.22;3.58;;;;;;;23.81;49.27;99118.28;5022233;28;20033;-91
2023/05/15 10:31:41;;;;;;;7.35;2.83;;;;;;;23.64;48.62;99103.00;5023590;28;20064;-91
2023/05/15 10:34:09;;;;;;;6.03;3.17;;;;;;;23.66;47.64;99102.63;5011685;28;20050;-92
2023/05/15 10:36:40;;;;;;;7.60;2.67;;;;;;;23.58;47.33;99104.47;5037628;28;20029;-92
2023/05/15 10:39:10;;;;;;;5.07;2.60;;;;;;;23.74;45.54;99096.13;5023828;28;20100;-91
2023/05/15 10:41:42;;;;;;;6.90;3.13;;;;;;;23.85;46.37;99104.63;5010093;28;20067;-92
2023/05/15 10:44:08;;;;;;;8.35;2.70;;;;;;;23.65;46.21;99081.81;5020164;28;20063;-95
2023/05/15 10:46:46;;;;;;;17.38;3.08;;;;;;;23.66;45.84;99081.47;5016628;28;20041;-92
2023/05/15 10:49:15;;;;;;;8.85;3.63;;;;;;;23.70;45.31;99087.00;4985484;28;20133;-96
2023/05/15 10:56:25;;;;;;;5.78;2.70;;;;;;;24.63;41.50;99096.13;4927279;29;20036;-96
2023/05/15 11:02:30;;;;;;;11.77;4.10;;;;;;;24.87;41.20;99079.19;4916425;29;20047;-96
2023/05/15 11:05:18;;;;;;;7.05;3.10;;;;;;;24.95;41.33;99091.91;4968181;29;20042;-96
2023/05/15 11:11:56;;;;;;;8.75;3.03;;;;;;;25.06;41.00;99108.56;4933889;29;20175;-95
2023/05/15 11:14:25;;;;;;;11.52;3.10;;;;;;;25.06;41.02;99089.28;4968026;28;20046;-95
2023/05/15 11:17:05;;;;;;;10.43;3.15;;;;;;;24.87;41.13;99101.22;4949114;29;20121;-95
2023/05/15 11:20:33;;;;;;;5.85;2.92;;;;;;;24.54;41.92;99080.66;4934201;29;20040;-96
2023/05/15 11:23:09;;;;;;;8.52;2.70;;;;;;;24.54;40.58;99082.63;4977748;28;20038;-95
2023/05/15 11:26:11;;;;;;;4.57;2.55;;;;;;;24.61;40.83;99088.25;4967392;28;20520;-96
2023/05/15 11:28:43;;;;;;;6.85;2.40;;;;;;;24.70;40.48;99074.22;4928467;29;20036;-95
2023/05/15 11:33:48;;;;;;;7.30;2.70;;;;;;;24.53;40.22;99065.34;5901955;23;20072;-95
2023/05/15 11:36:43;;;;;;;;;;;;;;;;;;;;;
2023/05/15 11:43:47;;;;;;;5.80;2.88;;;;;;;24.10;41.23;99094.84;4972805;29;20061;-96
2023/05/15 11:53:23;;;;;;;5.20;2.83;;;;;;;23.44;42.91;99074.72;4997809;28;20068;-95
2023/05/15 11:55:54;;;;;;;9.00;3.13;;;;;;;23.34;42.89;99078.84;5021320;28;20036;-95
2023/05/15 12:02:07;;;;;;;7.95;3.25;;;;;;;23.36;43.16;99054.56;5036656;28;20045;-93
2023/05/15 12:04:43;;;;;;;7.07;2.60;;;;;;;23.46;41.71;99050.44;5041181;28;20020;-94
2023/05/15 12:07:14;;;;;;;8.00;2.63;;;;;;;23.60;41.95;99069.94;5045067;28;20036;-94
2023/05/15 12:09:58;;;;;;;6.70;2.80;;;;;;;23.51;42.68;99060.34;5043761;28;20115;-95
2023/05/15 12:12:31;;;;;;;8.70;3.60;;;;;;;23.38;43.02;99063.22;5031963;28;20064;-96
2023/05/15 12:15:05;;;;;;;8.05;3.30;;;;;;;23.36;43.42;99034.53;5046781;28;20107;-94
2023/05/15 12:17:33;;;;;;;9.85;3.35;;;;;;;23.46;42.43;99028.44;5051558;28;20100;-94
2023/05/15 12:20:24;;;;;;;9.23;3.55;;;;;;;23.39;43.14;99037.34;5030891;28;20021;-96
2023/05/15 12:26:27;;;;;;;5.25;2.63;;;;;;;23.40;43.52;99046.38;5010057;28;20535;-95
2023/05/15 12:29:09;;;;;;;5.95;2.50;;;;;;;23.36;42.85;99060.03;4988021;28;20472;-95
2023/05/15 12:31:55;;;;;;;8.18;3.75;;;;;;;23.28;43.63;99072.03;4993746;28;20421;-96
2023/05/15 12:38:35;;;;;;;;;;;;;;;;;;;;;
2023/05/15 12:41:52;;;;;;;13.05;3.78;;;;;;;23.11;43.95;99045.81;4907601;29;20056;-94
2023/05/15 12:45:03;;;;;;;7.45;3.90;;;;;;;23.06;44.27;99045.31;4891525;29;20035;-95
2023/05/15 12:47:41;;;;;;;11.32;2.83;;;;;;;23.17;44.28;99049.84;4857539;29;20049;-96